sensor_id;sensor_type;location;lat;lon;timestamp;temperature;humidity
3334;DHT22;1679;50.392;8.008;2022-11-06T00:02:19;6.10;99.90
3334;DHT22;1679;50.392;8.008;2022-11-06T00:04:45;6.20;99.90
3334;DHT22;1679;50.392;8.008;2022-11-06T00:07:10;6.20;99.90
3334;DHT22;1679;50.392;8.008;2022-11-06T00:09:36;6.20;99.90
3334;DHT22;1679;50.392;8.008;2022-11-06T00:12:01;6.20;99.90
3334;DHT22;1679;50.392;8.008;2022-11-06T00:14:27;6.20;99.90
3334;DHT22;1679;50.392;8.008;2022-11-06T00:16:53;6.40;99.90
3334;DHT22;1679;50.392;8.008;2022-11-06T00:19:18;6.40;99.90
3334;DHT22;1679;50.392;8.008;2022-11-06T00:21:44;6.40;99.90
3334;DHT22;1679;50.392;8.008;2022-11-06T00:24:11;6.40;99.90
3334;DHT22;1679;50.392;8.008;2022-11-06T00:26:38;6.40;99.90
3334;DHT22;1679;50.392;8.008;2022-11-06T00:29:04;6.50;99.90
3334;DHT22;1679;50.392;8.008;2022-11-06T00:31:33;6.40;99.90
3334;DHT22;1679;50.392;8.008;2022-11-06T00:34:00;6.50;99.90
3334;DHT22;1679;50.392;8.008;2022-11-06T00:36:27;6.50;99.90
3334;DHT22;1679;50.392;8.008;2022-11-06T00:38:55;6.50;99.90
3334;DHT22;1679;50.392;8.008;2022-11-06T00:41:23;6.50;99.90
3334;DHT22;1679;50.392;8.008;2022-11-06T00:43:52;6.60;99.90
3334;DHT22;1679;50.392;8.008;2022-11-06T00:46:20;6.60;99.90
3334;DHT22;1679;50.392;8.008;2022-11-06T00:48:46;6.60;99.90
3334;DHT22;1679;50.392;8.008;2022-11-06T00:51:16;6.60;99.90
3334;DHT22;1679;50.392;8.008;2022-11-06T00:53:44;6.60;99.90
3334;DHT22;1679;50.392;8.008;2022-11-06T00:56:12;6.70;99.90
3334;DHT22;1679;50.392;8.008;2022-11-06T00:58:38;6.60;99.90
3334;DHT22;1679;50.392;8.008;2022-11-06T01:01:06;6.70;99.90
3334;DHT22;1679;50.392;8.008;2022-11-06T01:03:33;6.70;99.90
3334;DHT22;1679;50.392;8.008;2022-11-06T01:06:07;6.60;99.90
3334;DHT22;1679;50.392;8.008;2022-11-06T01:08:33;6.60;99.90
3334;DHT22;1679;50.392;8.008;2022-11-06T01:11:05;6.60;99.90
3334;DHT22;1679;50.392;8.008;2022-11-06T01:13:30;6.50;99.90
3334;DHT22;1679;50.392;8.008;2022-11-06T01:15:56;6.40;99.90
3334;DHT22;1679;50.392;8.008;2022-11-06T01:18:21;6.40;99.90
3334;DHT22;1679;50.392;8.008;2022-11-06T01:20:47;6.40;99.90
3334;DHT22;1679;50.392;8.008;2022-11-06T01:23:13;6.30;99.90
3334;DHT22;1679;50.392;8.008;2022-11-06T01:25:38;6.30;99.90
3334;DHT22;1679;50.392;8.008;2022-11-06T01:28:04;6.40;99.90
3334;DHT22;1679;50.392;8.008;2022-11-06T01:30:29;6.40;99.90
3334;DHT22;1679;50.392;8.008;2022-11-06T01:32:55;6.50;99.90
3334;DHT22;1679;50.392;8.008;2022-11-06T01:35:20;6.50;99.90
3334;DHT22;1679;50.392;8.008;2022-11-06T01:37:46;6.60;99.90
3334;DHT22;1679;50.392;8.008;2022-11-06T01:40:11;6.60;99.90
3334;DHT22;1679;50.392;8.008;2022-11-06T01:42:37;6.70;99.90
3334;DHT22;1679;50.392;8.008;2022-11-06T01:45:25;6.70;99.90
3334;DHT22;1679;50.392;8.008;2022-11-06T01:47:51;6.70;99.90
3334;DHT22;1679;50.392;8.008;2022-11-06T01:50:17;6.80;99.90
3334;DHT22;1679;50.392;8.008;2022-11-06T01:52:43;6.80;99.90
3334;DHT22;1679;50.392;8.008;2022-11-06T01:55:33;6.80;99.90
3334;DHT22;1679;50.392;8.008;2022-11-06T01:58:03;6.80;99.90
3334;DHT22;1679;50.392;8.008;2022-11-06T02:00:31;6.70;99.90
3334;DHT22;1679;50.392;8.008;2022-11-06T02:02:57;6.80;99.90
3334;DHT22;1679;50.392;8.008;2022-11-06T02:05:23;6.80;99.90
3334;DHT22;1679;50.392;8.008;2022-11-06T02:07:49;6.80;99.90
3334;DHT22;1679;50.392;8.008;2022-11-06T02:10:15;6.80;99.90
3334;DHT22;1679;50.392;8.008;2022-11-06T02:12:50;6.80;99.90
3334;DHT22;1679;50.392;8.008;2022-11-06T02:18:27;6.90;99.90
3334;DHT22;1679;50.392;8.008;2022-11-06T02:32:58;7.00;99.90
3334;DHT22;1679;50.392;8.008;2022-11-06T02:35:37;6.90;99.90
3334;DHT22;1679;50.392;8.008;2022-11-06T02:38:10;6.90;99.90
3334;DHT22;1679;50.392;8.008;2022-11-06T02:40:41;6.90;99.90
3334;DHT22;1679;50.392;8.008;2022-11-06T02:43:08;6.90;99.90
3334;DHT22;1679;50.392;8.008;2022-11-06T02:45:45;6.90;99.90
3334;DHT22;1679;50.392;8.008;2022-11-06T02:48:13;6.90;99.90
3334;DHT22;1679;50.392;8.008;2022-11-06T02:50:44;6.90;99.90
3334;DHT22;1679;50.392;8.008;2022-11-06T02:53:13;6.90;99.90
3334;DHT22;1679;50.392;8.008;2022-11-06T02:55:46;6.90;99.90
3334;DHT22;1679;50.392;8.008;2022-11-06T02:58:15;6.90;99.90
3334;DHT22;1679;50.392;8.008;2022-11-06T03:00:44;6.90;99.90
3334;DHT22;1679;50.392;8.008;2022-11-06T03:03:22;6.90;99.90
3334;DHT22;1679;50.392;8.008;2022-11-06T03:06:06;6.90;99.90
3334;DHT22;1679;50.392;8.008;2022-11-06T03:08:52;7.00;99.90
3334;DHT22;1679;50.392;8.008;2022-11-06T03:11:28;7.00;99.90
3334;DHT22;1679;50.392;8.008;2022-11-06T03:14:13;7.00;99.90
3334;DHT22;1679;50.392;8.008;2022-11-06T03:19:47;7.10;99.90
3334;DHT22;1679;50.392;8.008;2022-11-06T03:24:57;6.90;99.90
3334;DHT22;1679;50.392;8.008;2022-11-06T03:28:02;6.90;99.90
3334;DHT22;1679;50.392;8.008;2022-11-06T03:30:34;6.80;99.90
3334;DHT22;1679;50.392;8.008;2022-11-06T03:33:13;6.80;99.90
3334;DHT22;1679;50.392;8.008;2022-11-06T03:35:46;6.70;99.90
3334;DHT22;1679;50.392;8.008;2022-11-06T03:38:30;6.60;99.90
3334;DHT22;1679;50.392;8.008;2022-11-06T03:41:08;6.60;99.90
3334;DHT22;1679;50.392;8.008;2022-11-06T03:43:37;6.50;99.90
3334;DHT22;1679;50.392;8.008;2022-11-06T03:46:08;6.50;99.90
3334;DHT22;1679;50.392;8.008;2022-11-06T03:48:42;6.60;99.90
3334;DHT22;1679;50.392;8.008;2022-11-06T03:51:19;6.60;99.90
3334;DHT22;1679;50.392;8.008;2022-11-06T03:53:51;6.60;99.90
3334;DHT22;1679;50.392;8.008;2022-11-06T03:56:23;6.60;99.90
3334;DHT22;1679;50.392;8.008;2022-11-06T03:58:49;6.60;99.90
3334;DHT22;1679;50.392;8.008;2022-11-06T04:01:20;6.60;99.90
3334;DHT22;1679;50.392;8.008;2022-11-06T04:03:53;6.70;99.90
3334;DHT22;1679;50.392;8.008;2022-11-06T04:06:27;6.70;99.90
3334;DHT22;1679;50.392;8.008;2022-11-06T04:08:58;6.70;99.90
3334;DHT22;1679;50.392;8.008;2022-11-06T04:11:44;6.80;99.90
3334;DHT22;1679;50.392;8.008;2022-11-06T04:14:31;6.80;99.90
3334;DHT22;1679;50.392;8.008;2022-11-06T04:17:01;6.90;99.90
3334;DHT22;1679;50.392;8.008;2022-11-06T04:19:28;6.90;99.90
3334;DHT22;1679;50.392;8.008;2022-11-06T04:22:10;6.90;99.90
3334;DHT22;1679;50.392;8.008;2022-11-06T04:25:03;6.90;99.90
3334;DHT22;1679;50.392;8.008;2022-11-06T04:28:12;6.90;99.90
3334;DHT22;1679;50.392;8.008;2022-11-06T04:31:06;6.90;99.90
3334;DHT22;1679;50.392;8.008;2022-11-06T04:36:30;6.90;99.90
3334;DHT22;1679;50.392;8.008;2022-11-06T04:42:17;6.70;99.90
3334;DHT22;1679;50.392;8.008;2022-11-06T04:44:50;6.70;99.90
3334;DHT22;1679;50.392;8.008;2022-11-06T04:47:19;6.60;99.90
3334;DHT22;1679;50.392;8.008;2022-11-06T04:49:48;6.60;99.90
3334;DHT22;1679;50.392;8.008;2022-11-06T04:52:19;6.50;99.90
3334;DHT22;1679;50.392;8.008;2022-11-06T04:54:46;6.40;99.90
3334;DHT22;1679;50.392;8.008;2022-11-06T04:57:11;6.40;99.90
3334;DHT22;1679;50.392;8.008;2022-11-06T04:59:37;6.30;99.90
3334;DHT22;1679;50.392;8.008;2022-11-06T05:02:04;6.20;99.90
3334;DHT22;1679;50.392;8.008;2022-11-06T05:04:29;6.20;99.90
3334;DHT22;1679;50.392;8.008;2022-11-06T05:06:55;6.00;99.90
3334;DHT22;1679;50.392;8.008;2022-11-06T05:09:21;6.00;99.90
3334;DHT22;1679;50.392;8.008;2022-11-06T05:11:48;5.80;99.90
3334;DHT22;1679;50.392;8.008;2022-11-06T05:14:13;5.70;99.90
3334;DHT22;1679;50.392;8.008;2022-11-06T05:16:39;5.60;99.90
3334;DHT22;1679;50.392;8.008;2022-11-06T05:19:05;5.50;99.90
3334;DHT22;1679;50.392;8.008;2022-11-06T05:21:30;5.50;99.90
3334;DHT22;1679;50.392;8.008;2022-11-06T05:24:14;5.50;99.90
3334;DHT22;1679;50.392;8.008;2022-11-06T05:26:47;5.60;99.90
3334;DHT22;1679;50.392;8.008;2022-11-06T05:29:13;5.50;99.90
3334;DHT22;1679;50.392;8.008;2022-11-06T05:31:39;5.40;99.90
3334;DHT22;1679;50.392;8.008;2022-11-06T05:34:05;5.40;99.90
3334;DHT22;1679;50.392;8.008;2022-11-06T05:36:31;5.30;99.90
3334;DHT22;1679;50.392;8.008;2022-11-06T05:38:56;5.30;99.90
3334;DHT22;1679;50.392;8.008;2022-11-06T05:41:22;5.30;99.90
3334;DHT22;1679;50.392;8.008;2022-11-06T05:43:47;5.20;99.90
3334;DHT22;1679;50.392;8.008;2022-11-06T05:46:13;5.10;99.90
3334;DHT22;1679;50.392;8.008;2022-11-06T05:48:39;5.00;99.90
3334;DHT22;1679;50.392;8.008;2022-11-06T05:51:06;4.90;99.90
3334;DHT22;1679;50.392;8.008;2022-11-06T05:53:35;4.90;99.90
3334;DHT22;1679;50.392;8.008;2022-11-06T05:56:02;4.90;99.90
3334;DHT22;1679;50.392;8.008;2022-11-06T05:58:27;4.90;99.90
3334;DHT22;1679;50.392;8.008;2022-11-06T06:00:54;4.90;99.90
3334;DHT22;1679;50.392;8.008;2022-11-06T06:03:19;4.80;99.90
3334;DHT22;1679;50.392;8.008;2022-11-06T06:05:48;4.80;99.90
3334;DHT22;1679;50.392;8.008;2022-11-06T06:08:14;4.80;99.90
3334;DHT22;1679;50.392;8.008;2022-11-06T06:10:42;4.80;99.90
3334;DHT22;1679;50.392;8.008;2022-11-06T06:13:10;4.80;99.90
3334;DHT22;1679;50.392;8.008;2022-11-06T06:15:39;4.90;99.90
3334;DHT22;1679;50.392;8.008;2022-11-06T06:18:06;4.90;99.90
3334;DHT22;1679;50.392;8.008;2022-11-06T06:20:34;4.90;99.90
3334;DHT22;1679;50.392;8.008;2022-11-06T06:23:00;4.90;99.90
3334;DHT22;1679;50.392;8.008;2022-11-06T06:25:27;4.90;99.90
3334;DHT22;1679;50.392;8.008;2022-11-06T06:27:53;4.80;99.90
3334;DHT22;1679;50.392;8.008;2022-11-06T06:30:20;4.90;99.90
3334;DHT22;1679;50.392;8.008;2022-11-06T06:32:48;4.90;99.90
3334;DHT22;1679;50.392;8.008;2022-11-06T06:35:14;4.90;99.90
3334;DHT22;1679;50.392;8.008;2022-11-06T06:37:39;4.90;99.90
3334;DHT22;1679;50.392;8.008;2022-11-06T06:40:05;4.90;99.90
3334;DHT22;1679;50.392;8.008;2022-11-06T06:42:31;4.90;99.90
3334;DHT22;1679;50.392;8.008;2022-11-06T06:44:57;4.90;99.90
3334;DHT22;1679;50.392;8.008;2022-11-06T06:47:22;4.90;99.90
3334;DHT22;1679;50.392;8.008;2022-11-06T06:49:48;4.90;99.90
3334;DHT22;1679;50.392;8.008;2022-11-06T06:52:15;4.90;99.90
3334;DHT22;1679;50.392;8.008;2022-11-06T06:54:40;5.00;99.90
3334;DHT22;1679;50.392;8.008;2022-11-06T06:57:07;5.00;99.90
3334;DHT22;1679;50.392;8.008;2022-11-06T06:59:32;5.10;99.90
3334;DHT22;1679;50.392;8.008;2022-11-06T07:01:59;5.20;99.90
3334;DHT22;1679;50.392;8.008;2022-11-06T07:04:25;5.30;99.90
3334;DHT22;1679;50.392;8.008;2022-11-06T07:06:53;5.30;99.90
3334;DHT22;1679;50.392;8.008;2022-11-06T07:09:20;5.40;99.90
3334;DHT22;1679;50.392;8.008;2022-11-06T07:11:45;5.50;99.90
3334;DHT22;1679;50.392;8.008;2022-11-06T07:14:11;5.70;99.90
3334;DHT22;1679;50.392;8.008;2022-11-06T07:16:37;5.80;99.90
3334;DHT22;1679;50.392;8.008;2022-11-06T07:19:04;6.00;99.90
3334;DHT22;1679;50.392;8.008;2022-11-06T07:21:31;6.20;99.90
3334;DHT22;1679;50.392;8.008;2022-11-06T07:23:56;6.40;99.90
3334;DHT22;1679;50.392;8.008;2022-11-06T07:26:22;6.50;99.90
3334;DHT22;1679;50.392;8.008;2022-11-06T07:28:48;6.70;99.90
3334;DHT22;1679;50.392;8.008;2022-11-06T07:31:13;6.90;99.90
3334;DHT22;1679;50.392;8.008;2022-11-06T07:33:39;7.10;99.90
3334;DHT22;1679;50.392;8.008;2022-11-06T07:36:10;7.40;99.90
3334;DHT22;1679;50.392;8.008;2022-11-06T07:38:37;7.60;99.90
3334;DHT22;1679;50.392;8.008;2022-11-06T07:41:05;7.90;99.90
3334;DHT22;1679;50.392;8.008;2022-11-06T07:43:31;8.10;99.90
3334;DHT22;1679;50.392;8.008;2022-11-06T07:46:02;8.30;99.90
3334;DHT22;1679;50.392;8.008;2022-11-06T07:48:28;8.60;99.90
3334;DHT22;1679;50.392;8.008;2022-11-06T07:50:54;8.70;99.90
3334;DHT22;1679;50.392;8.008;2022-11-06T07:53:20;9.00;99.90
3334;DHT22;1679;50.392;8.008;2022-11-06T07:55:54;9.10;99.90
3334;DHT22;1679;50.392;8.008;2022-11-06T07:58:22;9.30;99.90
3334;DHT22;1679;50.392;8.008;2022-11-06T08:00:52;9.50;99.90
3334;DHT22;1679;50.392;8.008;2022-11-06T08:03:19;9.60;99.90
3334;DHT22;1679;50.392;8.008;2022-11-06T08:05:44;9.70;99.90
3334;DHT22;1679;50.392;8.008;2022-11-06T08:08:10;9.80;99.90
3334;DHT22;1679;50.392;8.008;2022-11-06T08:10:36;9.90;99.90
3334;DHT22;1679;50.392;8.008;2022-11-06T08:13:06;10.10;99.90
3334;DHT22;1679;50.392;8.008;2022-11-06T08:15:32;10.20;99.90
3334;DHT22;1679;50.392;8.008;2022-11-06T08:17:58;10.30;99.90
3334;DHT22;1679;50.392;8.008;2022-11-06T08:20:25;10.50;99.90
3334;DHT22;1679;50.392;8.008;2022-11-06T08:22:50;10.50;99.90
3334;DHT22;1679;50.392;8.008;2022-11-06T08:25:17;10.50;99.90
3334;DHT22;1679;50.392;8.008;2022-11-06T08:27:43;10.70;99.90
3334;DHT22;1679;50.392;8.008;2022-11-06T08:30:09;10.90;99.90
3334;DHT22;1679;50.392;8.008;2022-11-06T08:32:35;10.80;99.90
3334;DHT22;1679;50.392;8.008;2022-11-06T08:35:00;10.80;99.90
3334;DHT22;1679;50.392;8.008;2022-11-06T08:37:26;10.90;99.90
3334;DHT22;1679;50.392;8.008;2022-11-06T08:39:51;11.00;99.90
3334;DHT22;1679;50.392;8.008;2022-11-06T08:42:17;11.00;99.90
3334;DHT22;1679;50.392;8.008;2022-11-06T08:44:42;11.00;99.90
3334;DHT22;1679;50.392;8.008;2022-11-06T08:47:08;11.30;99.90
3334;DHT22;1679;50.392;8.008;2022-11-06T08:49:35;11.40;99.90
3334;DHT22;1679;50.392;8.008;2022-11-06T08:52:00;11.50;99.90
3334;DHT22;1679;50.392;8.008;2022-11-06T08:54:27;11.60;99.90
3334;DHT22;1679;50.392;8.008;2022-11-06T08:56:52;11.60;99.90
3334;DHT22;1679;50.392;8.008;2022-11-06T08:59:18;11.60;99.90
3334;DHT22;1679;50.392;8.008;2022-11-06T09:01:43;11.50;99.90
3334;DHT22;1679;50.392;8.008;2022-11-06T09:04:09;11.50;99.90
3334;DHT22;1679;50.392;8.008;2022-11-06T09:06:34;11.40;99.90
3334;DHT22;1679;50.392;8.008;2022-11-06T09:09:00;11.30;99.90
3334;DHT22;1679;50.392;8.008;2022-11-06T09:11:25;11.30;99.90
3334;DHT22;1679;50.392;8.008;2022-11-06T09:13:51;11.40;99.90
3334;DHT22;1679;50.392;8.008;2022-11-06T09:16:16;11.40;99.90
3334;DHT22;1679;50.392;8.008;2022-11-06T09:18:42;11.50;99.90
3334;DHT22;1679;50.392;8.008;2022-11-06T09:21:08;11.70;99.90
3334;DHT22;1679;50.392;8.008;2022-11-06T09:23:33;11.80;99.90
3334;DHT22;1679;50.392;8.008;2022-11-06T09:25:59;11.90;99.90
3334;DHT22;1679;50.392;8.008;2022-11-06T09:28:25;11.90;99.90
3334;DHT22;1679;50.392;8.008;2022-11-06T09:30:51;11.80;99.90
3334;DHT22;1679;50.392;8.008;2022-11-06T09:33:17;11.70;99.90
3334;DHT22;1679;50.392;8.008;2022-11-06T09:35:43;11.60;99.90
3334;DHT22;1679;50.392;8.008;2022-11-06T09:38:12;11.70;99.90
3334;DHT22;1679;50.392;8.008;2022-11-06T09:40:51;11.70;99.90
3334;DHT22;1679;50.392;8.008;2022-11-06T09:43:37;11.80;99.90
3334;DHT22;1679;50.392;8.008;2022-11-06T09:46:23;11.70;99.90
3334;DHT22;1679;50.392;8.008;2022-11-06T09:54:15;11.60;99.90
3334;DHT22;1679;50.392;8.008;2022-11-06T09:56:44;11.40;99.90
3334;DHT22;1679;50.392;8.008;2022-11-06T09:59:15;11.30;99.90
3334;DHT22;1679;50.392;8.008;2022-11-06T10:01:56;11.20;99.90
3334;DHT22;1679;50.392;8.008;2022-11-06T10:04:49;11.00;99.90
3334;DHT22;1679;50.392;8.008;2022-11-06T10:07:28;10.90;99.90
3334;DHT22;1679;50.392;8.008;2022-11-06T10:09:55;10.80;99.90
3334;DHT22;1679;50.392;8.008;2022-11-06T10:13:29;10.80;99.90
3334;DHT22;1679;50.392;8.008;2022-11-06T10:15:55;10.70;99.90
3334;DHT22;1679;50.392;8.008;2022-11-06T10:18:53;10.50;99.90
3334;DHT22;1679;50.392;8.008;2022-11-06T10:21:45;10.50;99.90
3334;DHT22;1679;50.392;8.008;2022-11-06T10:27:16;10.60;99.90
3334;DHT22;1679;50.392;8.008;2022-11-06T10:35:18;10.90;99.90
3334;DHT22;1679;50.392;8.008;2022-11-06T10:37:54;10.90;99.90
3334;DHT22;1679;50.392;8.008;2022-11-06T10:40:25;11.00;99.90
3334;DHT22;1679;50.392;8.008;2022-11-06T10:45:26;11.00;99.90
3334;DHT22;1679;50.392;8.008;2022-11-06T10:47:55;11.00;99.90
3334;DHT22;1679;50.392;8.008;2022-11-06T10:50:27;11.00;99.90
3334;DHT22;1679;50.392;8.008;2022-11-06T10:53:07;10.90;99.90
3334;DHT22;1679;50.392;8.008;2022-11-06T10:56:08;11.00;99.90
3334;DHT22;1679;50.392;8.008;2022-11-06T10:58:38;11.00;99.90
3334;DHT22;1679;50.392;8.008;2022-11-06T11:01:04;11.00;99.90
3334;DHT22;1679;50.392;8.008;2022-11-06T11:03:32;10.90;99.90
3334;DHT22;1679;50.392;8.008;2022-11-06T11:05:58;10.90;99.90
3334;DHT22;1679;50.392;8.008;2022-11-06T11:08:30;10.90;99.90
3334;DHT22;1679;50.392;8.008;2022-11-06T11:11:03;10.90;99.90
3334;DHT22;1679;50.392;8.008;2022-11-06T11:13:31;11.00;99.90
3334;DHT22;1679;50.392;8.008;2022-11-06T11:15:57;11.00;99.90
3334;DHT22;1679;50.392;8.008;2022-11-06T11:18:27;11.20;99.90
3334;DHT22;1679;50.392;8.008;2022-11-06T11:23:45;11.20;99.90
3334;DHT22;1679;50.392;8.008;2022-11-06T11:26:26;11.20;99.90
3334;DHT22;1679;50.392;8.008;2022-11-06T11:29:02;11.10;99.90
3334;DHT22;1679;50.392;8.008;2022-11-06T11:31:34;11.20;99.90
3334;DHT22;1679;50.392;8.008;2022-11-06T11:34:03;11.30;99.90
3334;DHT22;1679;50.392;8.008;2022-11-06T11:39:22;11.30;99.90
3334;DHT22;1679;50.392;8.008;2022-11-06T11:41:48;11.20;99.90
3334;DHT22;1679;50.392;8.008;2022-11-06T11:44:16;11.20;99.90
3334;DHT22;1679;50.392;8.008;2022-11-06T11:46:52;11.00;99.90
3334;DHT22;1679;50.392;8.008;2022-11-06T11:49:32;11.00;99.90
3334;DHT22;1679;50.392;8.008;2022-11-06T11:52:00;11.00;99.90
3334;DHT22;1679;50.392;8.008;2022-11-06T11:54:31;11.00;99.90
3334;DHT22;1679;50.392;8.008;2022-11-06T11:57:05;10.90;99.90
3334;DHT22;1679;50.392;8.008;2022-11-06T11:59:36;10.90;99.90
3334;DHT22;1679;50.392;8.008;2022-11-06T12:02:35;10.90;99.90
3334;DHT22;1679;50.392;8.008;2022-11-06T12:05:16;10.90;99.90
3334;DHT22;1679;50.392;8.008;2022-11-06T12:07:46;10.90;99.90
3334;DHT22;1679;50.392;8.008;2022-11-06T12:12:57;10.90;99.90
3334;DHT22;1679;50.392;8.008;2022-11-06T12:15:27;10.80;99.90
3334;DHT22;1679;50.392;8.008;2022-11-06T12:18:04;10.80;99.90
3334;DHT22;1679;50.392;8.008;2022-11-06T12:23:21;10.90;99.90
3334;DHT22;1679;50.392;8.008;2022-11-06T12:26:17;11.00;99.90
3334;DHT22;1679;50.392;8.008;2022-11-06T12:28:46;11.00;99.90
3334;DHT22;1679;50.392;8.008;2022-11-06T12:31:31;11.00;99.90
3334;DHT22;1679;50.392;8.008;2022-11-06T12:34:51;11.00;99.90
3334;DHT22;1679;50.392;8.008;2022-11-06T12:39:39;10.70;99.90
3334;DHT22;1679;50.392;8.008;2022-11-06T12:42:10;10.60;99.90
3334;DHT22;1679;50.392;8.008;2022-11-06T12:44:36;10.40;99.90
3334;DHT22;1679;50.392;8.008;2022-11-06T12:47:07;10.30;99.90
3334;DHT22;1679;50.392;8.008;2022-11-06T12:52:14;10.30;99.90
3334;DHT22;1679;50.392;8.008;2022-11-06T12:57:49;10.40;99.90
3334;DHT22;1679;50.392;8.008;2022-11-06T13:00:21;10.60;99.90
3334;DHT22;1679;50.392;8.008;2022-11-06T13:13:46;10.40;99.90
3334;DHT22;1679;50.392;8.008;2022-11-06T13:16:18;10.40;99.90
3334;DHT22;1679;50.392;8.008;2022-11-06T13:18:55;10.30;99.90
3334;DHT22;1679;50.392;8.008;2022-11-06T13:21:38;10.30;99.90
3334;DHT22;1679;50.392;8.008;2022-11-06T13:24:11;10.30;99.90
3334;DHT22;1679;50.392;8.008;2022-11-06T13:26:46;10.30;99.90
3334;DHT22;1679;50.392;8.008;2022-11-06T13:29:16;10.20;99.90
3334;DHT22;1679;50.392;8.008;2022-11-06T13:31:56;10.20;99.90
3334;DHT22;1679;50.392;8.008;2022-11-06T13:34:26;10.20;99.90
3334;DHT22;1679;50.392;8.008;2022-11-06T13:36:54;10.20;99.90
3334;DHT22;1679;50.392;8.008;2022-11-06T13:39:30;10.20;99.90
3334;DHT22;1679;50.392;8.008;2022-11-06T13:41:56;10.20;99.90
3334;DHT22;1679;50.392;8.008;2022-11-06T13:44:23;10.10;99.90
3334;DHT22;1679;50.392;8.008;2022-11-06T13:47:03;10.10;99.90
3334;DHT22;1679;50.392;8.008;2022-11-06T13:49:58;10.00;99.90
3334;DHT22;1679;50.392;8.008;2022-11-06T13:52:37;10.10;99.90
3334;DHT22;1679;50.392;8.008;2022-11-06T13:58:17;10.20;99.90
3334;DHT22;1679;50.392;8.008;2022-11-06T14:04:11;10.20;99.90
3334;DHT22;1679;50.392;8.008;2022-11-06T14:06:38;10.10;99.90
3334;DHT22;1679;50.392;8.008;2022-11-06T14:09:21;10.10;99.90
3334;DHT22;1679;50.392;8.008;2022-11-06T14:11:54;10.10;99.90
3334;DHT22;1679;50.392;8.008;2022-11-06T14:17:09;9.90;99.90
3334;DHT22;1679;50.392;8.008;2022-11-06T14:19:36;9.90;99.90
3334;DHT22;1679;50.392;8.008;2022-11-06T14:24:40;10.00;99.90
3334;DHT22;1679;50.392;8.008;2022-11-06T14:27:10;9.90;99.90
3334;DHT22;1679;50.392;8.008;2022-11-06T14:34:48;9.90;99.90
3334;DHT22;1679;50.392;8.008;2022-11-06T14:47:46;9.80;99.90
3334;DHT22;1679;50.392;8.008;2022-11-06T14:52:54;9.80;99.90
3334;DHT22;1679;50.392;8.008;2022-11-06T14:55:26;9.70;99.90
3334;DHT22;1679;50.392;8.008;2022-11-06T14:57:56;9.70;99.90
3334;DHT22;1679;50.392;8.008;2022-11-06T15:06:36;9.60;99.90
3334;DHT22;1679;50.392;8.008;2022-11-06T15:09:06;9.50;99.90
3334;DHT22;1679;50.392;8.008;2022-11-06T15:16:43;9.40;99.90
3334;DHT22;1679;50.392;8.008;2022-11-06T15:19:31;9.40;99.90
3334;DHT22;1679;50.392;8.008;2022-11-06T15:22:37;9.40;99.90
3334;DHT22;1679;50.392;8.008;2022-11-06T15:25:19;9.40;99.90
3334;DHT22;1679;50.392;8.008;2022-11-06T15:28:12;9.40;99.90
3334;DHT22;1679;50.392;8.008;2022-11-06T15:31:04;9.40;99.90
3334;DHT22;1679;50.392;8.008;2022-11-06T15:36:19;9.30;99.90
3334;DHT22;1679;50.392;8.008;2022-11-06T15:38:45;9.30;99.90
3334;DHT22;1679;50.392;8.008;2022-11-06T15:41:20;9.20;99.90
3334;DHT22;1679;50.392;8.008;2022-11-06T15:43:49;9.20;99.90
3334;DHT22;1679;50.392;8.008;2022-11-06T15:46:24;9.30;99.90
3334;DHT22;1679;50.392;8.008;2022-11-06T15:49:25;9.20;99.90
3334;DHT22;1679;50.392;8.008;2022-11-06T15:52:01;9.20;99.90
3334;DHT22;1679;50.392;8.008;2022-11-06T15:54:41;9.30;99.90
3334;DHT22;1679;50.392;8.008;2022-11-06T15:59:41;9.30;99.90
3334;DHT22;1679;50.392;8.008;2022-11-06T16:02:18;9.30;99.90
3334;DHT22;1679;50.392;8.008;2022-11-06T16:04:44;9.30;99.90
3334;DHT22;1679;50.392;8.008;2022-11-06T16:07:12;9.20;99.90
3334;DHT22;1679;50.392;8.008;2022-11-06T16:09:39;9.20;99.90
3334;DHT22;1679;50.392;8.008;2022-11-06T16:12:08;9.20;99.90
3334;DHT22;1679;50.392;8.008;2022-11-06T16:14:38;9.20;99.90
3334;DHT22;1679;50.392;8.008;2022-11-06T16:17:30;9.20;99.90
3334;DHT22;1679;50.392;8.008;2022-11-06T16:19:57;9.20;99.90
3334;DHT22;1679;50.392;8.008;2022-11-06T16:22:28;9.30;99.90
3334;DHT22;1679;50.392;8.008;2022-11-06T16:25:00;9.30;99.90
3334;DHT22;1679;50.392;8.008;2022-11-06T16:27:33;9.30;99.90
3334;DHT22;1679;50.392;8.008;2022-11-06T16:29:59;9.20;99.90
3334;DHT22;1679;50.392;8.008;2022-11-06T16:32:30;9.20;99.90
3334;DHT22;1679;50.392;8.008;2022-11-06T16:34:57;9.20;99.90
3334;DHT22;1679;50.392;8.008;2022-11-06T16:39:57;9.20;99.90
3334;DHT22;1679;50.392;8.008;2022-11-06T16:45:21;9.20;99.90
3334;DHT22;1679;50.392;8.008;2022-11-06T16:50:52;9.20;99.90
3334;DHT22;1679;50.392;8.008;2022-11-06T16:53:21;9.10;99.90
3334;DHT22;1679;50.392;8.008;2022-11-06T16:56:04;9.10;99.90
3334;DHT22;1679;50.392;8.008;2022-11-06T16:58:43;9.20;99.90
3334;DHT22;1679;50.392;8.008;2022-11-06T17:01:10;9.20;99.90
3334;DHT22;1679;50.392;8.008;2022-11-06T17:03:46;9.30;99.90
3334;DHT22;1679;50.392;8.008;2022-11-06T17:06:28;9.30;99.90
3334;DHT22;1679;50.392;8.008;2022-11-06T17:09:00;9.30;99.90
3334;DHT22;1679;50.392;8.008;2022-11-06T17:11:27;9.30;99.90
3334;DHT22;1679;50.392;8.008;2022-11-06T17:13:54;9.30;99.90
3334;DHT22;1679;50.392;8.008;2022-11-06T17:16:22;9.30;99.90
3334;DHT22;1679;50.392;8.008;2022-11-06T17:18:49;9.30;99.90
3334;DHT22;1679;50.392;8.008;2022-11-06T17:23:42;9.20;99.90
3334;DHT22;1679;50.392;8.008;2022-11-06T17:26:13;9.20;99.90
3334;DHT22;1679;50.392;8.008;2022-11-06T17:28:40;9.10;99.90
3334;DHT22;1679;50.392;8.008;2022-11-06T17:31:09;9.10;99.90
3334;DHT22;1679;50.392;8.008;2022-11-06T17:33:42;9.00;99.90
3334;DHT22;1679;50.392;8.008;2022-11-06T17:36:20;9.00;99.90
3334;DHT22;1679;50.392;8.008;2022-11-06T17:38:47;9.00;99.90
3334;DHT22;1679;50.392;8.008;2022-11-06T17:41:13;8.90;99.90
3334;DHT22;1679;50.392;8.008;2022-11-06T17:43:57;8.90;99.90
3334;DHT22;1679;50.392;8.008;2022-11-06T17:46:25;8.90;99.90
3334;DHT22;1679;50.392;8.008;2022-11-06T17:48:51;8.90;99.90
3334;DHT22;1679;50.392;8.008;2022-11-06T17:51:17;9.00;99.90
3334;DHT22;1679;50.392;8.008;2022-11-06T17:54:01;8.90;99.90
3334;DHT22;1679;50.392;8.008;2022-11-06T17:56:27;8.90;99.90
3334;DHT22;1679;50.392;8.008;2022-11-06T17:58:53;9.00;99.90
3334;DHT22;1679;50.392;8.008;2022-11-06T18:01:18;9.00;99.90
3334;DHT22;1679;50.392;8.008;2022-11-06T18:03:44;9.00;99.90
3334;DHT22;1679;50.392;8.008;2022-11-06T18:06:11;9.00;99.90
3334;DHT22;1679;50.392;8.008;2022-11-06T18:08:37;9.00;99.90
3334;DHT22;1679;50.392;8.008;2022-11-06T18:11:03;9.00;99.90
3334;DHT22;1679;50.392;8.008;2022-11-06T18:13:29;9.00;99.90
3334;DHT22;1679;50.392;8.008;2022-11-06T18:15:56;8.90;99.90
3334;DHT22;1679;50.392;8.008;2022-11-06T18:18:23;8.90;99.90
3334;DHT22;1679;50.392;8.008;2022-11-06T18:20:49;8.90;99.90
3334;DHT22;1679;50.392;8.008;2022-11-06T18:23:16;9.00;99.90
3334;DHT22;1679;50.392;8.008;2022-11-06T18:25:42;9.00;99.90
3334;DHT22;1679;50.392;8.008;2022-11-06T18:28:08;9.00;99.90
3334;DHT22;1679;50.392;8.008;2022-11-06T18:30:37;9.00;99.90
3334;DHT22;1679;50.392;8.008;2022-11-06T18:33:03;9.00;99.90
3334;DHT22;1679;50.392;8.008;2022-11-06T18:35:29;9.00;99.90
3334;DHT22;1679;50.392;8.008;2022-11-06T18:37:55;9.00;99.90
3334;DHT22;1679;50.392;8.008;2022-11-06T18:40:21;9.00;99.90
3334;DHT22;1679;50.392;8.008;2022-11-06T18:42:47;9.00;99.90
3334;DHT22;1679;50.392;8.008;2022-11-06T18:45:12;8.90;99.90
3334;DHT22;1679;50.392;8.008;2022-11-06T18:47:38;8.90;99.90